createdAt,value
2023-02-27T00:00:48.444Z,953.86
2023-02-27T00:01:48.421Z,953.87
2023-02-27T00:02:48.481Z,953.88
2023-02-27T00:03:48.496Z,953.89
2023-02-27T00:04:48.415Z,953.91
2023-02-27T00:05:48.394Z,953.87
2023-02-27T00:06:48.366Z,953.88
2023-02-27T00:07:48.348Z,953.91
2023-02-27T00:08:48.353Z,953.86
2023-02-27T00:09:48.346Z,953.85
2023-02-27T00:10:48.319Z,953.87
2023-02-27T00:11:48.291Z,953.90
2023-02-27T00:12:48.269Z,953.89
2023-02-27T00:13:48.295Z,953.87
2023-02-27T00:14:48.279Z,953.90
2023-02-27T00:15:48.352Z,953.84
2023-02-27T00:16:48.239Z,953.89
2023-02-27T00:17:48.209Z,953.88
2023-02-27T00:18:48.214Z,953.90
2023-02-27T00:19:48.189Z,953.92
2023-02-27T00:20:48.191Z,953.91
2023-02-27T00:21:48.170Z,953.88
2023-02-27T00:22:48.161Z,953.87
2023-02-27T00:23:48.142Z,953.95
2023-02-27T00:24:48.132Z,953.94
2023-02-27T00:25:48.152Z,953.95
2023-02-27T00:26:48.090Z,953.95
2023-02-27T00:27:48.145Z,953.97
2023-02-27T00:28:48.073Z,954.00
2023-02-27T00:29:48.046Z,954.03
2023-02-27T00:30:48.085Z,954.02
2023-02-27T00:31:48.155Z,954.01
2023-02-27T00:32:48.032Z,953.98
2023-02-27T00:33:48.020Z,954.00
2023-02-27T00:34:48.003Z,953.99
2023-02-27T00:35:47.976Z,954.01
2023-02-27T00:36:47.990Z,953.99
2023-02-27T00:37:47.969Z,953.99
2023-02-27T00:38:47.950Z,953.95
2023-02-27T00:39:47.910Z,953.95
2023-02-27T00:40:47.915Z,953.97
2023-02-27T00:41:47.920Z,953.94
2023-02-27T00:42:47.897Z,954.00
2023-02-27T00:43:47.872Z,954.00
2023-02-27T00:44:47.859Z,954.06
2023-02-27T00:45:47.841Z,954.04
2023-02-27T00:46:47.922Z,954.04
2023-02-27T00:47:47.859Z,953.99
2023-02-27T00:48:47.797Z,953.98
2023-02-27T00:49:47.803Z,954.03
2023-02-27T00:50:47.771Z,954.02
2023-02-27T00:51:47.759Z,954.02
2023-02-27T00:52:47.802Z,954.01
2023-02-27T00:53:47.753Z,953.99
2023-02-27T00:54:47.714Z,953.97
2023-02-27T00:55:47.712Z,953.99
2023-02-27T00:56:47.700Z,954.00
2023-02-27T00:57:47.750Z,953.98
2023-02-27T00:58:47.681Z,953.98
2023-02-27T00:59:47.658Z,953.95
2023-02-27T01:00:47.668Z,953.97
2023-02-27T01:01:47.648Z,953.96
2023-02-27T01:02:47.674Z,953.95
2023-02-27T01:03:47.599Z,953.95
2023-02-27T01:04:47.594Z,953.96
2023-02-27T01:05:47.584Z,953.96
2023-02-27T01:06:47.579Z,954.01
2023-02-27T01:07:47.592Z,953.96
2023-02-27T01:08:47.542Z,953.96
2023-02-27T01:09:47.536Z,953.99
2023-02-27T01:10:47.545Z,953.99
2023-02-27T01:11:47.514Z,954.00
2023-02-27T01:12:47.526Z,953.99
2023-02-27T01:13:47.483Z,953.99
2023-02-27T01:14:47.470Z,953.98
2023-02-27T01:15:47.459Z,953.94
2023-02-27T01:16:47.478Z,953.95
2023-02-27T01:17:47.453Z,953.94
2023-02-27T01:18:47.436Z,953.87
2023-02-27T01:19:47.406Z,953.82
2023-02-27T01:20:47.381Z,953.86
2023-02-27T01:21:47.393Z,953.86
2023-02-27T01:22:47.421Z,953.87
2023-02-27T01:23:47.355Z,953.89
2023-02-27T01:24:47.343Z,953.93
2023-02-27T01:25:47.352Z,953.90
2023-02-27T01:26:47.315Z,953.94
2023-02-27T01:27:47.302Z,953.90
2023-02-27T01:28:47.279Z,953.90
2023-02-27T01:29:47.271Z,953.93
2023-02-27T01:30:47.345Z,953.94
2023-02-27T01:31:47.379Z,953.93
2023-02-27T01:32:47.344Z,953.92
2023-02-27T01:33:47.238Z,953.90
2023-02-27T01:34:47.208Z,953.91
2023-02-27T01:35:47.189Z,953.95
2023-02-27T01:36:48.188Z,954.00
2023-02-27T01:37:47.192Z,953.98
2023-02-27T01:38:47.165Z,953.97
2023-02-27T01:39:47.175Z,953.99
2023-02-27T01:40:47.140Z,954.00
2023-02-27T01:41:47.106Z,954.01
2023-02-27T01:42:47.106Z,953.99
2023-02-27T01:43:47.124Z,954.02
2023-02-27T01:44:47.121Z,954.01
2023-02-27T01:45:47.105Z,953.99
2023-02-27T01:46:47.055Z,953.93
2023-02-27T01:47:47.177Z,953.95
2023-02-27T01:48:47.060Z,953.95
2023-02-27T01:49:47.032Z,953.98
2023-02-27T01:50:47.003Z,954.00
2023-02-27T01:51:47.000Z,953.90
2023-02-27T01:52:46.959Z,953.92
2023-02-27T01:53:46.982Z,953.91
2023-02-27T01:54:47.023Z,953.89
2023-02-27T01:55:46.934Z,953.92
2023-02-27T01:56:46.932Z,953.88
2023-02-27T01:57:46.915Z,953.94
2023-02-27T01:58:46.917Z,953.97
2023-02-27T01:59:46.912Z,953.94
2023-02-27T02:00:46.935Z,953.93
2023-02-27T02:01:46.848Z,953.96
2023-02-27T02:02:46.875Z,953.96
2023-02-27T02:03:46.825Z,953.93
2023-02-27T02:04:46.832Z,953.98
2023-02-27T02:05:46.826Z,953.98
2023-02-27T02:06:46.800Z,953.98
2023-02-27T02:07:46.771Z,953.94
2023-02-27T02:08:46.783Z,953.93
2023-02-27T02:09:46.774Z,953.93
2023-02-27T02:10:46.742Z,953.95
2023-02-27T02:11:46.727Z,953.91
2023-02-27T02:12:46.730Z,953.89
2023-02-27T02:13:46.698Z,953.90
2023-02-27T02:14:46.696Z,953.94
2023-02-27T02:15:46.705Z,953.90
2023-02-27T02:16:46.685Z,953.92
2023-02-27T02:17:46.654Z,953.89
2023-02-27T02:18:46.672Z,953.94
2023-02-27T02:19:46.622Z,953.95
2023-02-27T02:20:46.602Z,953.90
2023-02-27T02:21:46.624Z,953.90
2023-02-27T02:22:46.603Z,953.93
2023-02-27T02:23:46.580Z,953.89
2023-02-27T02:24:46.602Z,953.90
2023-02-27T02:25:46.534Z,953.89
2023-02-27T02:26:46.585Z,953.92
2023-02-27T02:27:46.508Z,953.88
2023-02-27T02:28:46.496Z,953.86
2023-02-27T02:29:46.500Z,953.89
2023-02-27T02:30:46.632Z,953.89
2023-02-27T02:31:46.589Z,953.92
2023-02-27T02:32:46.456Z,953.93
2023-02-27T02:33:46.449Z,953.92
2023-02-27T02:34:46.450Z,953.93
2023-02-27T02:35:46.436Z,953.92
2023-02-27T02:36:46.418Z,953.90
2023-02-27T02:37:46.385Z,953.86
2023-02-27T02:38:46.374Z,953.84
2023-02-27T02:39:46.383Z,953.85
2023-02-27T02:40:46.368Z,953.88
2023-02-27T02:41:46.363Z,953.83
2023-02-27T02:42:46.311Z,953.89
2023-02-27T02:43:46.296Z,953.89
2023-02-27T02:44:46.303Z,953.90
2023-02-27T02:45:46.357Z,953.90
2023-02-27T02:46:46.297Z,953.90
2023-02-27T02:47:46.256Z,953.90
2023-02-27T02:48:46.233Z,953.83
2023-02-27T02:49:46.236Z,953.92
2023-02-27T02:50:46.224Z,953.94
2023-02-27T02:51:46.248Z,953.91
2023-02-27T02:52:46.202Z,953.89
2023-02-27T02:53:46.184Z,953.90
2023-02-27T02:54:46.173Z,953.91
2023-02-27T02:55:46.165Z,953.88
2023-02-27T02:56:46.251Z,953.92
2023-02-27T02:57:46.164Z,953.93
2023-02-27T02:58:46.113Z,953.91
2023-02-27T02:59:46.113Z,953.93
2023-02-27T03:00:46.091Z,953.94
2023-02-27T03:01:46.174Z,953.95
2023-02-27T03:02:46.095Z,953.94
2023-02-27T03:03:46.052Z,953.95
2023-02-27T03:04:46.050Z,953.92
2023-02-27T03:05:46.008Z,953.91
2023-02-27T03:06:46.004Z,953.93
2023-02-27T03:07:46.063Z,953.95
2023-02-27T03:08:46.008Z,953.95
2023-02-27T03:09:45.993Z,953.97
2023-02-27T03:10:45.959Z,953.99
2023-02-27T03:11:45.941Z,953.97
2023-02-27T03:12:45.962Z,953.97
2023-02-27T03:13:45.923Z,953.99
2023-02-27T03:14:45.910Z,954.03
2023-02-27T03:15:45.981Z,954.03
2023-02-27T03:16:45.892Z,954.03
2023-02-27T03:17:45.876Z,954.00
2023-02-27T03:18:45.874Z,954.04
2023-02-27T03:19:45.836Z,954.03
2023-02-27T03:20:45.826Z,954.09
2023-02-27T03:21:45.798Z,954.10
2023-02-27T03:22:45.828Z,954.06
2023-02-27T03:23:45.867Z,954.03
2023-02-27T03:24:45.767Z,954.02
2023-02-27T03:25:45.786Z,954.12
2023-02-27T03:26:45.740Z,954.07
2023-02-27T03:27:45.736Z,954.03
2023-02-27T03:28:45.756Z,954.06
2023-02-27T03:29:45.701Z,954.05
2023-02-27T03:30:45.796Z,954.07
2023-02-27T03:31:45.904Z,954.09
2023-02-27T03:32:45.683Z,954.09
2023-02-27T03:33:45.682Z,954.08
2023-02-27T03:34:45.646Z,954.10
2023-02-27T03:35:45.630Z,954.09
2023-02-27T03:36:45.618Z,954.12
2023-02-27T03:37:45.602Z,954.10
2023-02-27T03:38:45.619Z,954.12
2023-02-27T03:39:45.587Z,954.04
2023-02-27T03:40:45.561Z,954.12
2023-02-27T03:41:45.526Z,954.07
2023-02-27T03:42:45.535Z,954.13
2023-02-27T03:43:45.530Z,954.12
2023-02-27T03:44:45.523Z,954.10
2023-02-27T03:45:45.491Z,954.17
2023-02-27T03:46:45.505Z,954.14
2023-02-27T03:47:45.472Z,954.13
2023-02-27T03:48:45.463Z,954.15
2023-02-27T03:49:45.450Z,954.14
2023-02-27T03:50:45.447Z,954.19
2023-02-27T03:51:45.416Z,954.16
2023-02-27T03:52:45.403Z,954.15
2023-02-27T03:53:45.395Z,954.18
2023-02-27T03:54:45.370Z,954.19
2023-02-27T03:55:45.383Z,954.18
2023-02-27T03:56:45.357Z,954.21
2023-02-27T03:57:45.325Z,954.27
2023-02-27T03:58:45.349Z,954.29
2023-02-27T03:59:45.302Z,954.29
2023-02-27T04:00:45.307Z,954.24
2023-02-27T04:01:45.316Z,954.23
2023-02-27T04:02:45.309Z,954.23
2023-02-27T04:03:45.262Z,954.21
2023-02-27T04:04:45.244Z,954.26
2023-02-27T04:05:45.253Z,954.23
2023-02-27T04:06:45.231Z,954.23
2023-02-27T04:07:45.255Z,954.17
2023-02-27T04:08:45.217Z,954.22
2023-02-27T04:09:45.169Z,954.26
2023-02-27T04:10:45.200Z,954.23
2023-02-27T04:11:45.152Z,954.21
2023-02-27T04:12:46.038Z,954.26
2023-02-27T04:13:45.156Z,954.22
2023-02-27T04:14:45.121Z,954.24
2023-02-27T04:15:45.126Z,954.26
2023-02-27T04:16:45.128Z,954.23
2023-02-27T04:17:45.083Z,954.23
2023-02-27T04:18:45.065Z,954.25
2023-02-27T04:19:45.045Z,954.27
2023-02-27T04:20:45.079Z,954.28
2023-02-27T04:21:45.020Z,954.28
2023-02-27T04:22:45.004Z,954.29
2023-02-27T04:23:44.990Z,954.25
2023-02-27T04:24:44.994Z,954.21
2023-02-27T04:25:44.961Z,954.26
2023-02-27T04:26:44.987Z,954.21
2023-02-27T04:27:44.950Z,954.20
2023-02-27T04:28:44.932Z,954.24
2023-02-27T04:29:44.937Z,954.23
2023-02-27T04:30:44.963Z,954.27
2023-02-27T04:31:45.080Z,954.30
2023-02-27T04:32:45.049Z,954.29
2023-02-27T04:33:44.894Z,954.25
2023-02-27T04:34:44.861Z,954.28
2023-02-27T04:35:44.862Z,954.30
2023-02-27T04:36:44.850Z,954.30
2023-02-27T04:37:44.833Z,954.26
2023-02-27T04:38:44.804Z,954.24
2023-02-27T04:39:44.812Z,954.29
2023-02-27T04:40:44.800Z,954.26
2023-02-27T04:41:44.774Z,954.27
2023-02-27T04:42:44.804Z,954.25
2023-02-27T04:43:44.745Z,954.26
2023-02-27T04:44:44.766Z,954.24
2023-02-27T04:45:44.760Z,954.24
2023-02-27T04:46:44.743Z,954.25
2023-02-27T04:47:44.702Z,954.27
2023-02-27T04:48:44.756Z,954.25
2023-02-27T04:49:44.677Z,954.28
2023-02-27T04:50:44.658Z,954.28
2023-02-27T04:51:44.687Z,954.27
2023-02-27T04:52:44.645Z,954.26
2023-02-27T04:53:44.646Z,954.24
2023-02-27T04:54:44.593Z,954.24
2023-02-27T04:55:44.595Z,954.27
2023-02-27T04:56:44.610Z,954.24
2023-02-27T04:57:44.580Z,954.24
2023-02-27T04:58:44.547Z,954.27
2023-02-27T04:59:44.558Z,954.26
2023-02-27T05:00:44.550Z,954.25
2023-02-27T05:01:44.553Z,954.23
2023-02-27T05:02:44.660Z,954.20
2023-02-27T05:03:44.499Z,954.17
2023-02-27T05:04:44.477Z,954.16
2023-02-27T05:05:44.545Z,954.18
2023-02-27T05:06:44.475Z,954.21
2023-02-27T05:07:44.429Z,954.22
2023-02-27T05:08:44.416Z,954.18
2023-02-27T05:09:44.414Z,954.17
2023-02-27T05:10:44.388Z,954.21
2023-02-27T05:11:44.447Z,954.19
2023-02-27T05:12:44.361Z,954.19
2023-02-27T05:13:44.365Z,954.15
2023-02-27T05:14:44.345Z,954.15
2023-02-27T05:15:44.393Z,954.19
2023-02-27T05:16:44.402Z,954.17
2023-02-27T05:17:44.366Z,954.20
2023-02-27T05:18:44.325Z,954.21
2023-02-27T05:19:44.376Z,954.20
2023-02-27T05:20:44.309Z,954.19
2023-02-27T05:21:44.359Z,954.20
2023-02-27T05:22:44.343Z,954.24
2023-02-27T05:23:44.326Z,954.23
2023-02-27T05:24:44.203Z,954.19
2023-02-27T05:25:44.196Z,954.16
2023-02-27T05:26:44.220Z,954.17
2023-02-27T05:27:44.163Z,954.19
2023-02-27T05:28:45.085Z,954.23
2023-02-27T05:29:44.151Z,954.22
2023-02-27T05:30:44.154Z,954.20
2023-02-27T05:31:44.165Z,954.22
2023-02-27T05:32:44.110Z,954.19
2023-02-27T05:33:44.144Z,954.19
2023-02-27T05:34:44.080Z,954.22
2023-02-27T05:35:44.094Z,954.18
2023-02-27T05:36:44.057Z,954.20
2023-02-27T05:37:44.037Z,954.21
2023-02-27T05:38:44.044Z,954.18
2023-02-27T05:39:44.048Z,954.12
2023-02-27T05:40:43.985Z,954.19
2023-02-27T05:41:43.986Z,954.16
2023-02-27T05:42:43.985Z,954.19
2023-02-27T05:43:43.981Z,954.16
2023-02-27T05:44:43.962Z,954.19
2023-02-27T05:45:43.972Z,954.22
2023-02-27T05:46:43.908Z,954.24
2023-02-27T05:47:43.896Z,954.25
2023-02-27T05:48:43.930Z,954.22
2023-02-27T05:49:43.955Z,954.22
2023-02-27T05:50:43.900Z,954.20
2023-02-27T05:51:43.865Z,954.18
2023-02-27T05:52:43.849Z,954.20
2023-02-27T05:53:43.824Z,954.18
2023-02-27T05:54:43.848Z,954.16
2023-02-27T05:55:43.830Z,954.23
2023-02-27T05:56:43.785Z,954.19
2023-02-27T05:57:43.768Z,954.21
2023-02-27T05:58:43.762Z,954.23
2023-02-27T05:59:43.765Z,954.17
2023-02-27T06:00:43.756Z,954.20
2023-02-27T06:01:46.227Z,954.18
2023-02-27T06:02:43.739Z,954.22
2023-02-27T06:03:43.734Z,954.25
2023-02-27T06:04:43.725Z,954.27
2023-02-27T06:05:43.710Z,954.25
2023-02-27T06:06:43.685Z,954.27
2023-02-27T06:07:43.652Z,954.26
2023-02-27T06:08:43.698Z,954.27
2023-02-27T06:09:43.644Z,954.29
2023-02-27T06:10:43.621Z,954.31
2023-02-27T06:11:43.590Z,954.27
2023-02-27T06:12:43.621Z,954.25
2023-02-27T06:13:43.570Z,954.24
2023-02-27T06:14:43.549Z,954.27
2023-02-27T06:15:43.573Z,954.31
2023-02-27T06:16:43.673Z,954.35
2023-02-27T06:17:43.542Z,954.33
2023-02-27T06:18:43.503Z,954.33
2023-02-27T06:19:43.474Z,954.34
2023-02-27T06:20:43.473Z,954.34
2023-02-27T06:21:43.484Z,954.33
2023-02-27T06:22:43.460Z,954.34
2023-02-27T06:23:43.445Z,954.36
2023-02-27T06:24:43.462Z,954.35
2023-02-27T06:25:43.397Z,954.36
2023-02-27T06:26:43.431Z,954.39
2023-02-27T06:27:43.401Z,954.34
2023-02-27T06:28:43.381Z,954.41
2023-02-27T06:29:43.360Z,954.39
2023-02-27T06:30:45.975Z,954.40
2023-02-27T06:31:43.444Z,954.42
2023-02-27T06:32:43.333Z,954.43
2023-02-27T06:33:43.319Z,954.44
2023-02-27T06:34:43.300Z,954.46
2023-02-27T06:35:43.353Z,954.45
2023-02-27T06:36:43.282Z,954.45
2023-02-27T06:37:43.265Z,954.49
2023-02-27T06:38:43.268Z,954.49
2023-02-27T06:39:43.278Z,954.50
2023-02-27T06:40:43.217Z,954.51
2023-02-27T06:41:43.212Z,954.50
2023-02-27T06:42:43.216Z,954.51
2023-02-27T06:43:43.166Z,954.51
2023-02-27T06:44:43.153Z,954.49
2023-02-27T06:45:43.159Z,954.53
2023-02-27T06:46:43.162Z,954.51
2023-02-27T06:47:43.145Z,954.47
2023-02-27T06:48:43.115Z,954.51
2023-02-27T06:49:43.097Z,954.47
2023-02-27T06:50:43.085Z,954.53
2023-02-27T06:51:44.983Z,954.49
2023-02-27T06:52:43.039Z,954.54
2023-02-27T06:53:43.071Z,954.48
2023-02-27T06:54:43.025Z,954.48
2023-02-27T06:55:43.013Z,954.49
2023-02-27T06:56:43.021Z,954.50
2023-02-27T06:57:42.987Z,954.52
2023-02-27T06:58:42.954Z,954.48
2023-02-27T06:59:42.960Z,954.50
2023-02-27T07:00:42.953Z,954.47
2023-02-27T07:01:42.957Z,954.52
2023-02-27T07:02:42.944Z,954.47
2023-02-27T07:03:42.911Z,954.44
2023-02-27T07:04:42.956Z,954.45
2023-02-27T07:05:42.871Z,954.43
2023-02-27T07:07:34.541Z,954.45
2023-02-27T07:07:42.861Z,954.47
2023-02-27T07:09:01.892Z,954.45
2023-02-27T07:09:42.852Z,954.46
2023-02-27T07:10:42.820Z,954.45
2023-02-27T07:11:42.800Z,954.47
2023-02-27T07:12:42.781Z,954.47
2023-02-27T07:13:42.779Z,954.53
2023-02-27T07:14:42.803Z,954.48
2023-02-27T07:15:42.805Z,954.50
2023-02-27T07:16:42.731Z,954.49
2023-02-27T07:17:42.725Z,954.51
2023-02-27T07:18:42.716Z,954.48
2023-02-27T07:19:42.723Z,954.52
2023-02-27T07:20:42.681Z,954.53
2023-02-27T07:21:42.706Z,954.52
2023-02-27T07:22:42.677Z,954.48
2023-02-27T07:23:42.659Z,954.49
2023-02-27T07:24:42.646Z,954.45
2023-02-27T07:25:42.663Z,954.46
2023-02-27T07:26:42.623Z,954.45
2023-02-27T07:27:42.586Z,954.47
2023-02-27T07:28:42.665Z,954.51
2023-02-27T07:29:42.574Z,954.51
2023-02-27T07:30:42.584Z,954.51
2023-02-27T07:31:42.539Z,954.53
2023-02-27T07:32:42.524Z,954.53
2023-02-27T07:33:42.526Z,954.54
2023-02-27T07:34:42.554Z,954.50
2023-02-27T07:35:42.567Z,954.54
2023-02-27T07:36:42.504Z,954.49
2023-02-27T07:37:42.463Z,954.53
2023-02-27T07:38:42.455Z,954.57
2023-02-27T07:39:42.441Z,954.55
2023-02-27T07:40:42.571Z,954.57
2023-02-27T07:41:42.471Z,954.58
2023-02-27T07:42:42.407Z,954.61
2023-02-27T07:43:42.440Z,954.55
2023-02-27T07:44:42.433Z,954.51
2023-02-27T07:45:42.414Z,954.51
2023-02-27T07:46:42.404Z,954.53
2023-02-27T07:47:42.370Z,954.55
2023-02-27T07:48:42.351Z,954.54
2023-02-27T07:49:42.322Z,954.57
2023-02-27T07:50:42.323Z,954.58
2023-02-27T07:51:42.331Z,954.58
2023-02-27T07:52:42.281Z,954.58
2023-02-27T07:53:42.268Z,954.55
2023-02-27T07:54:42.273Z,954.56
2023-02-27T07:55:42.274Z,954.53
2023-02-27T07:56:42.227Z,954.54
2023-02-27T07:57:42.203Z,954.55
2023-02-27T07:58:42.205Z,954.51
2023-02-27T07:59:42.186Z,954.50
2023-02-27T08:00:42.196Z,954.56
2023-02-27T08:01:42.167Z,954.57
2023-02-27T08:02:42.189Z,954.55
2023-02-27T08:03:42.138Z,954.56
2023-02-27T08:04:42.203Z,954.57
2023-02-27T08:05:42.124Z,954.59
2023-02-27T08:06:42.082Z,954.59
2023-02-27T08:07:42.076Z,954.60
2023-02-27T08:08:42.060Z,954.61
2023-02-27T08:09:42.136Z,954.61
2023-02-27T08:10:42.047Z,954.64
2023-02-27T08:11:42.040Z,954.64
2023-02-27T08:12:42.019Z,954.63
2023-02-27T08:13:59.721Z,954.65
2023-02-27T08:14:42.045Z,954.68
2023-02-27T08:15:42.001Z,954.56
2023-02-27T08:16:41.962Z,954.57
2023-02-27T08:17:41.969Z,954.59
2023-02-27T08:18:41.953Z,954.66
2023-02-27T08:19:41.919Z,954.63
2023-02-27T08:20:41.959Z,954.63
2023-02-27T08:21:41.915Z,954.62
2023-02-27T08:22:41.887Z,954.63
2023-02-27T08:23:42.697Z,954.63
2023-02-27T08:24:41.855Z,954.64
2023-02-27T08:25:41.846Z,954.65
2023-02-27T08:26:41.860Z,954.61
2023-02-27T08:27:41.874Z,954.64
2023-02-27T08:28:41.828Z,954.65
2023-02-27T08:29:41.790Z,954.66
2023-02-27T08:30:41.772Z,954.62
2023-02-27T08:31:41.788Z,954.69
2023-02-27T08:32:41.820Z,954.70
2023-02-27T08:33:41.762Z,954.69
2023-02-27T08:34:41.704Z,954.67
2023-02-27T08:35:41.747Z,954.69
2023-02-27T08:36:41.729Z,954.71
2023-02-27T08:37:41.698Z,954.70
2023-02-27T08:38:41.668Z,954.68
2023-02-27T08:39:41.677Z,954.73
2023-02-27T08:40:41.650Z,954.75
2023-02-27T08:41:41.643Z,954.75
2023-02-27T08:42:41.659Z,954.74
2023-02-27T08:43:41.589Z,954.78
2023-02-27T08:44:41.577Z,954.77
2023-02-27T08:45:41.624Z,954.72
2023-02-27T08:46:41.568Z,954.78
2023-02-27T08:47:41.560Z,954.74
2023-02-27T08:48:41.534Z,954.78
2023-02-27T08:49:41.612Z,954.80
2023-02-27T08:50:41.532Z,954.81
2023-02-27T08:51:41.523Z,954.77
2023-02-27T08:52:41.488Z,954.79
2023-02-27T08:53:41.485Z,954.81
2023-02-27T08:54:41.482Z,954.85
2023-02-27T08:55:41.474Z,954.84
2023-02-27T08:56:41.459Z,954.85
2023-02-27T08:57:41.410Z,954.85
2023-02-27T08:58:41.430Z,954.85
2023-02-27T08:59:41.424Z,954.88
2023-02-27T09:00:41.438Z,954.89
2023-02-27T09:01:41.394Z,954.91
2023-02-27T09:02:41.362Z,954.86
2023-02-27T09:03:41.339Z,954.89
2023-02-27T09:04:41.313Z,954.89
2023-02-27T09:05:41.339Z,954.94
2023-02-27T09:06:41.320Z,954.95
2023-02-27T09:07:41.277Z,954.96
2023-02-27T09:08:41.299Z,955.01
2023-02-27T09:09:41.242Z,955.01
2023-02-27T09:10:41.262Z,955.00
2023-02-27T09:11:41.275Z,955.03
2023-02-27T09:12:41.209Z,955.04
2023-02-27T09:13:41.224Z,955.05
2023-02-27T09:14:41.196Z,955.01
2023-02-27T09:15:41.178Z,955.02
2023-02-27T09:16:41.264Z,955.02
2023-02-27T09:17:41.163Z,955.07
2023-02-27T09:18:41.159Z,955.08
2023-02-27T09:19:41.147Z,955.07
2023-02-27T09:20:41.107Z,955.09
2023-02-27T09:21:41.111Z,955.09
2023-02-27T09:22:41.097Z,955.07
2023-02-27T09:23:41.078Z,955.11
2023-02-27T09:24:41.049Z,955.09
2023-02-27T09:25:41.127Z,955.09
2023-02-27T09:26:46.064Z,955.08
2023-02-27T09:27:41.017Z,955.12
2023-02-27T09:28:41.003Z,955.13
2023-02-27T09:29:41.009Z,955.14
2023-02-27T09:30:40.989Z,955.16
2023-02-27T09:31:41.023Z,955.12
2023-02-27T09:32:41.027Z,955.18
2023-02-27T09:33:40.950Z,955.16
2023-02-27T09:34:40.931Z,955.15
2023-02-27T09:35:40.940Z,955.17
2023-02-27T09:36:40.929Z,955.20
2023-02-27T09:37:40.954Z,955.14
2023-02-27T09:38:41.499Z,955.21
2023-02-27T09:39:40.869Z,955.23
2023-02-27T09:40:40.882Z,955.18
2023-02-27T09:41:40.838Z,955.20
2023-02-27T09:42:40.873Z,955.23
2023-02-27T09:43:40.881Z,955.23
2023-02-27T09:44:46.607Z,955.21
2023-02-27T09:45:40.823Z,955.23
2023-02-27T09:46:40.789Z,955.27
2023-02-27T09:47:40.808Z,955.24
2023-02-27T09:48:40.782Z,955.28
2023-02-27T09:49:40.719Z,955.27
2023-02-27T09:50:40.739Z,955.25
2023-02-27T09:51:40.705Z,955.24
2023-02-27T09:52:40.687Z,955.26
2023-02-27T09:53:40.713Z,955.28
2023-02-27T09:54:41.852Z,955.27
2023-02-27T09:55:40.648Z,955.23
2023-02-27T09:56:40.708Z,955.27
2023-02-27T09:57:40.619Z,955.30
2023-02-27T09:58:40.759Z,955.30
2023-02-27T09:59:40.614Z,955.35
2023-02-27T10:00:40.580Z,955.31
2023-02-27T10:01:40.560Z,955.29
2023-02-27T10:02:40.596Z,955.34
2023-02-27T10:03:40.621Z,955.38
2023-02-27T10:04:40.570Z,955.40
2023-02-27T10:05:40.504Z,955.44
2023-02-27T10:06:40.509Z,955.46
2023-02-27T10:07:40.492Z,955.51
2023-02-27T10:08:40.488Z,955.46
2023-02-27T10:09:40.480Z,955.52
2023-02-27T10:10:40.472Z,955.51
2023-02-27T10:11:40.440Z,955.56
2023-02-27T10:12:40.416Z,955.46
2023-02-27T10:13:40.424Z,955.51
2023-02-27T10:14:40.422Z,955.52
2023-02-27T10:15:40.460Z,955.53
2023-02-27T10:16:40.403Z,955.56
2023-02-27T10:17:40.371Z,955.56
2023-02-27T10:18:40.360Z,955.55
2023-02-27T10:19:40.386Z,955.56
2023-02-27T10:20:40.340Z,955.56
2023-02-27T10:21:40.300Z,955.59
2023-02-27T10:22:40.297Z,955.53
2023-02-27T10:23:40.289Z,955.63
2023-02-27T10:24:40.272Z,955.59
2023-02-27T10:25:40.310Z,955.62
2023-02-27T10:26:40.250Z,955.64
2023-02-27T10:27:40.236Z,955.63
2023-02-27T10:28:40.219Z,955.64
2023-02-27T10:29:40.197Z,955.62
2023-02-27T10:30:40.319Z,955.66
2023-02-27T10:31:40.169Z,955.70
2023-02-27T10:32:40.182Z,955.67
2023-02-27T10:33:40.176Z,955.68
2023-02-27T10:34:40.159Z,955.68
2023-02-27T10:35:40.160Z,955.68
2023-02-27T10:36:40.161Z,955.67
2023-02-27T10:37:40.100Z,955.67
2023-02-27T10:38:40.105Z,955.71
2023-02-27T10:39:40.102Z,955.71
2023-02-27T10:40:40.096Z,955.69
2023-02-27T10:41:40.180Z,955.69
2023-02-27T10:42:41.668Z,955.68
2023-02-27T10:43:40.018Z,955.70
2023-02-27T10:44:42.028Z,955.67
2023-02-27T10:45:39.992Z,955.74
2023-02-27T10:46:40.113Z,955.74
2023-02-27T10:47:39.962Z,955.71
2023-02-27T10:48:39.979Z,955.72
2023-02-27T10:49:39.945Z,955.72
2023-02-27T10:50:39.935Z,955.65
2023-02-27T10:51:39.940Z,955.70
2023-02-27T10:52:40.572Z,955.72
2023-02-27T10:53:39.880Z,955.69
2023-02-27T10:54:39.904Z,955.71
2023-02-27T10:55:39.844Z,955.71
2023-02-27T10:56:39.848Z,955.68
2023-02-27T10:57:39.841Z,955.70
2023-02-27T10:58:39.833Z,955.67
2023-02-27T10:59:39.796Z,955.68
2023-02-27T11:00:39.798Z,955.75
2023-02-27T11:01:39.816Z,955.71
2023-02-27T11:02:39.763Z,955.70
2023-02-27T11:03:41.412Z,955.73
2023-02-27T11:04:39.858Z,955.70
2023-02-27T11:05:39.726Z,955.69
2023-02-27T11:06:39.700Z,955.70
2023-02-27T11:07:39.734Z,955.70
2023-02-27T11:08:39.689Z,955.67
2023-02-27T11:09:39.690Z,955.68
2023-02-27T11:10:39.661Z,955.65
2023-02-27T11:11:39.639Z,955.63
2023-02-27T11:12:39.693Z,955.65
2023-02-27T11:13:39.602Z,955.66
2023-02-27T11:14:39.603Z,955.67
2023-02-27T11:15:39.648Z,955.65
2023-02-27T11:16:39.605Z,955.70
2023-02-27T11:17:39.564Z,955.68
2023-02-27T11:18:39.606Z,955.67
2023-02-27T11:19:39.539Z,955.67
2023-02-27T11:20:39.529Z,955.66
2023-02-27T11:21:39.556Z,955.69
2023-02-27T11:22:39.508Z,955.70
2023-02-27T11:23:39.492Z,955.72
2023-02-27T11:24:39.483Z,955.67
2023-02-27T11:25:39.462Z,955.64
2023-02-27T11:26:39.473Z,955.67
2023-02-27T11:27:39.459Z,955.67
2023-02-27T11:28:39.414Z,955.65
2023-02-27T11:29:39.404Z,955.67
2023-02-27T11:30:39.382Z,955.64
2023-02-27T11:31:39.368Z,955.67
2023-02-27T11:32:39.410Z,955.62
2023-02-27T11:33:39.369Z,955.65
2023-02-27T11:34:39.333Z,955.63
2023-02-27T11:35:39.389Z,955.67
2023-02-27T11:36:39.331Z,955.64
2023-02-27T11:37:39.342Z,955.63
2023-02-27T11:38:39.333Z,955.63
2023-02-27T11:39:39.276Z,955.66
2023-02-27T11:40:39.262Z,955.62
2023-02-27T11:41:39.256Z,955.63
2023-02-27T11:42:39.229Z,955.61
2023-02-27T11:43:39.250Z,955.59
2023-02-27T11:44:49.975Z,955.60
2023-02-27T11:46:04.429Z,955.61
2023-02-27T11:46:47.295Z,955.67
2023-02-27T11:47:39.233Z,955.68
2023-02-27T11:48:39.227Z,955.66
2023-02-27T11:49:39.146Z,955.66
2023-02-27T11:50:39.140Z,955.68
2023-02-27T11:51:39.170Z,955.66
2023-02-27T11:52:39.110Z,955.66
2023-02-27T11:53:39.133Z,955.68
2023-02-27T11:54:39.072Z,955.64
2023-02-27T11:55:39.079Z,955.64
2023-02-27T11:56:39.094Z,955.62
2023-02-27T11:57:39.044Z,955.63
2023-02-27T11:58:39.033Z,955.64
2023-02-27T11:59:39.034Z,955.59
2023-02-27T12:00:38.996Z,955.57
2023-02-27T12:01:38.986Z,955.58
2023-02-27T12:02:39.459Z,955.57
2023-02-27T12:03:38.968Z,955.57
2023-02-27T12:04:38.940Z,955.55
2023-02-27T12:05:38.939Z,955.57
2023-02-27T12:06:38.906Z,955.59
2023-02-27T12:07:38.946Z,955.56
2023-02-27T12:08:38.887Z,955.54
2023-02-27T12:09:38.907Z,955.59
2023-02-27T12:10:38.885Z,955.54
2023-02-27T12:11:38.860Z,955.50
2023-02-27T12:12:38.844Z,955.55
2023-02-27T12:13:38.831Z,955.57
2023-02-27T12:14:38.837Z,955.56
2023-02-27T12:15:38.835Z,955.60
2023-02-27T12:16:38.847Z,955.59
2023-02-27T12:17:38.790Z,955.60
2023-02-27T12:18:38.768Z,955.58
2023-02-27T12:19:38.753Z,955.63
2023-02-27T12:20:38.734Z,955.64
2023-02-27T12:21:38.749Z,955.62
2023-02-27T12:22:38.701Z,955.59
2023-02-27T12:23:38.683Z,955.56
2023-02-27T12:24:38.696Z,955.60
2023-02-27T12:25:38.662Z,955.60
2023-02-27T12:26:38.721Z,955.59
2023-02-27T12:27:38.642Z,955.58
2023-02-27T12:28:38.635Z,955.59